sensor_id;sensor_type;location;lat;lon;timestamp;temperature;humidity
20487;DHT22;10402;49.012;8.370;2023-11-22T00:00:22;9.10;96.10
20487;DHT22;10402;49.012;8.370;2023-11-22T00:02:48;9.10;95.80
20487;DHT22;10402;49.012;8.370;2023-11-22T00:05:14;9.00;95.70
20487;DHT22;10402;49.012;8.370;2023-11-22T00:07:39;9.00;95.50
20487;DHT22;10402;49.012;8.370;2023-11-22T00:10:05;9.00;95.80
20487;DHT22;10402;49.012;8.370;2023-11-22T00:12:31;9.00;95.50
20487;DHT22;10402;49.012;8.370;2023-11-22T00:15:03;9.00;95.60
20487;DHT22;10402;49.012;8.370;2023-11-22T00:17:29;9.00;95.20
20487;DHT22;10402;49.012;8.370;2023-11-22T00:19:55;8.90;95.30
20487;DHT22;10402;49.012;8.370;2023-11-22T00:22:20;8.90;95.00
20487;DHT22;10402;49.012;8.370;2023-11-22T00:24:46;8.80;95.10
20487;DHT22;10402;49.012;8.370;2023-11-22T00:27:15;8.60;95.40
20487;DHT22;10402;49.012;8.370;2023-11-22T00:29:41;8.60;95.70
20487;DHT22;10402;49.012;8.370;2023-11-22T00:32:07;8.50;95.50
20487;DHT22;10402;49.012;8.370;2023-11-22T00:34:33;8.40;95.80
20487;DHT22;10402;49.012;8.370;2023-11-22T00:36:58;8.30;95.80
20487;DHT22;10402;49.012;8.370;2023-11-22T00:39:24;8.20;96.10
20487;DHT22;10402;49.012;8.370;2023-11-22T00:41:49;8.20;96.20
20487;DHT22;10402;49.012;8.370;2023-11-22T00:44:15;8.20;96.30
20487;DHT22;10402;49.012;8.370;2023-11-22T00:46:40;8.10;96.20
20487;DHT22;10402;49.012;8.370;2023-11-22T00:49:07;8.10;96.30
20487;DHT22;10402;49.012;8.370;2023-11-22T00:51:34;8.00;96.20
20487;DHT22;10402;49.012;8.370;2023-11-22T00:53:59;8.00;96.40
20487;DHT22;10402;49.012;8.370;2023-11-22T00:56:25;8.00;96.40
20487;DHT22;10402;49.012;8.370;2023-11-22T00:58:51;7.90;96.20
20487;DHT22;10402;49.012;8.370;2023-11-22T01:01:18;7.90;96.20
20487;DHT22;10402;49.012;8.370;2023-11-22T01:03:44;7.90;96.40
20487;DHT22;10402;49.012;8.370;2023-11-22T01:06:10;7.90;96.00
20487;DHT22;10402;49.012;8.370;2023-11-22T01:08:35;7.80;96.00
20487;DHT22;10402;49.012;8.370;2023-11-22T01:11:02;7.90;96.10
20487;DHT22;10402;49.012;8.370;2023-11-22T01:13:29;7.80;95.30
20487;DHT22;10402;49.012;8.370;2023-11-22T01:15:54;7.60;94.90
20487;DHT22;10402;49.012;8.370;2023-11-22T01:18:20;7.50;95.20
20487;DHT22;10402;49.012;8.370;2023-11-22T01:20:45;7.30;95.10
20487;DHT22;10402;49.012;8.370;2023-11-22T01:23:11;7.30;95.50
20487;DHT22;10402;49.012;8.370;2023-11-22T01:25:36;7.20;95.70
20487;DHT22;10402;49.012;8.370;2023-11-22T01:28:03;7.30;96.00
20487;DHT22;10402;49.012;8.370;2023-11-22T01:30:29;7.20;95.80
20487;DHT22;10402;49.012;8.370;2023-11-22T01:32:54;7.30;95.80
20487;DHT22;10402;49.012;8.370;2023-11-22T01:35:21;7.20;95.60
20487;DHT22;10402;49.012;8.370;2023-11-22T01:37:46;7.20;95.90
20487;DHT22;10402;49.012;8.370;2023-11-22T01:40:12;7.20;96.10
20487;DHT22;10402;49.012;8.370;2023-11-22T01:42:38;7.20;95.90
20487;DHT22;10402;49.012;8.370;2023-11-22T01:45:06;7.20;96.20
20487;DHT22;10402;49.012;8.370;2023-11-22T01:47:32;7.20;96.00
20487;DHT22;10402;49.012;8.370;2023-11-22T01:49:59;7.20;96.10
20487;DHT22;10402;49.012;8.370;2023-11-22T01:52:25;7.10;96.00
20487;DHT22;10402;49.012;8.370;2023-11-22T01:54:51;7.10;96.20
20487;DHT22;10402;49.012;8.370;2023-11-22T01:57:17;7.10;96.10
20487;DHT22;10402;49.012;8.370;2023-11-22T01:59:43;7.00;96.30
20487;DHT22;10402;49.012;8.370;2023-11-22T02:02:10;7.00;96.40
20487;DHT22;10402;49.012;8.370;2023-11-22T02:04:36;7.00;96.50
20487;DHT22;10402;49.012;8.370;2023-11-22T02:07:02;7.10;96.70
20487;DHT22;10402;49.012;8.370;2023-11-22T02:09:28;7.10;96.60
20487;DHT22;10402;49.012;8.370;2023-11-22T02:11:53;7.10;96.60
20487;DHT22;10402;49.012;8.370;2023-11-22T02:14:19;7.10;96.60
20487;DHT22;10402;49.012;8.370;2023-11-22T02:16:45;7.10;96.60
20487;DHT22;10402;49.012;8.370;2023-11-22T02:19:17;7.10;96.60
20487;DHT22;10402;49.012;8.370;2023-11-22T02:21:43;7.10;96.50
20487;DHT22;10402;49.012;8.370;2023-11-22T02:24:09;7.00;96.50
20487;DHT22;10402;49.012;8.370;2023-11-22T02:26:35;7.00;96.60
20487;DHT22;10402;49.012;8.370;2023-11-22T02:29:02;7.10;96.60
20487;DHT22;10402;49.012;8.370;2023-11-22T02:31:29;7.10;96.60
20487;DHT22;10402;49.012;8.370;2023-11-22T02:33:55;7.00;96.20
20487;DHT22;10402;49.012;8.370;2023-11-22T02:36:21;7.10;96.40
20487;DHT22;10402;49.012;8.370;2023-11-22T02:38:47;7.00;96.10
20487;DHT22;10402;49.012;8.370;2023-11-22T02:41:13;7.00;96.40
20487;DHT22;10402;49.012;8.370;2023-11-22T02:43:39;7.00;96.50
20487;DHT22;10402;49.012;8.370;2023-11-22T02:46:07;7.00;96.30
20487;DHT22;10402;49.012;8.370;2023-11-22T02:48:33;7.00;96.10
20487;DHT22;10402;49.012;8.370;2023-11-22T02:50:59;7.00;96.10
20487;DHT22;10402;49.012;8.370;2023-11-22T02:53:25;7.00;96.10
20487;DHT22;10402;49.012;8.370;2023-11-22T02:55:51;7.00;96.10
20487;DHT22;10402;49.012;8.370;2023-11-22T02:58:17;7.00;96.00
20487;DHT22;10402;49.012;8.370;2023-11-22T03:00:42;6.90;96.00
20487;DHT22;10402;49.012;8.370;2023-11-22T03:03:08;7.00;96.00
20487;DHT22;10402;49.012;8.370;2023-11-22T03:05:36;6.90;95.70
20487;DHT22;10402;49.012;8.370;2023-11-22T03:08:05;6.90;95.80
20487;DHT22;10402;49.012;8.370;2023-11-22T03:10:35;6.90;95.90
20487;DHT22;10402;49.012;8.370;2023-11-22T03:13:01;6.90;95.80
20487;DHT22;10402;49.012;8.370;2023-11-22T03:15:27;6.90;95.70
20487;DHT22;10402;49.012;8.370;2023-11-22T03:17:52;6.90;95.90
20487;DHT22;10402;49.012;8.370;2023-11-22T03:20:18;7.00;95.90
20487;DHT22;10402;49.012;8.370;2023-11-22T03:22:44;6.90;95.80
20487;DHT22;10402;49.012;8.370;2023-11-22T03:25:10;7.00;95.70
20487;DHT22;10402;49.012;8.370;2023-11-22T03:27:37;7.00;95.70
20487;DHT22;10402;49.012;8.370;2023-11-22T03:30:04;7.00;95.60
20487;DHT22;10402;49.012;8.370;2023-11-22T03:32:29;7.00;95.30
20487;DHT22;10402;49.012;8.370;2023-11-22T03:34:55;6.90;95.40
20487;DHT22;10402;49.012;8.370;2023-11-22T03:37:22;6.90;95.50
20487;DHT22;10402;49.012;8.370;2023-11-22T03:39:48;6.90;95.30
20487;DHT22;10402;49.012;8.370;2023-11-22T03:42:14;6.90;95.30
20487;DHT22;10402;49.012;8.370;2023-11-22T03:44:42;6.80;95.30
20487;DHT22;10402;49.012;8.370;2023-11-22T03:47:10;6.70;95.50
20487;DHT22;10402;49.012;8.370;2023-11-22T03:49:36;6.80;95.40
20487;DHT22;10402;49.012;8.370;2023-11-22T03:52:02;6.70;95.30
20487;DHT22;10402;49.012;8.370;2023-11-22T03:54:27;6.60;95.20
20487;DHT22;10402;49.012;8.370;2023-11-22T03:56:53;6.60;95.20
20487;DHT22;10402;49.012;8.370;2023-11-22T03:59:19;6.60;95.10
20487;DHT22;10402;49.012;8.370;2023-11-22T04:01:44;6.60;95.00
20487;DHT22;10402;49.012;8.370;2023-11-22T04:04:10;6.60;94.60
20487;DHT22;10402;49.012;8.370;2023-11-22T04:06:36;6.60;94.70
20487;DHT22;10402;49.012;8.370;2023-11-22T04:09:01;6.60;94.60
20487;DHT22;10402;49.012;8.370;2023-11-22T04:11:27;6.60;94.60
20487;DHT22;10402;49.012;8.370;2023-11-22T04:13:55;6.50;94.50
20487;DHT22;10402;49.012;8.370;2023-11-22T04:16:21;6.50;94.60
20487;DHT22;10402;49.012;8.370;2023-11-22T04:18:46;6.40;94.60
20487;DHT22;10402;49.012;8.370;2023-11-22T04:21:12;6.40;94.50
20487;DHT22;10402;49.012;8.370;2023-11-22T04:23:38;6.40;93.90
20487;DHT22;10402;49.012;8.370;2023-11-22T04:26:03;6.20;93.80
20487;DHT22;10402;49.012;8.370;2023-11-22T04:28:29;6.10;93.80
20487;DHT22;10402;49.012;8.370;2023-11-22T04:30:55;6.10;93.90
20487;DHT22;10402;49.012;8.370;2023-11-22T04:33:22;6.10;94.10
20487;DHT22;10402;49.012;8.370;2023-11-22T04:35:48;6.10;93.80
20487;DHT22;10402;49.012;8.370;2023-11-22T04:38:14;6.00;93.30
20487;DHT22;10402;49.012;8.370;2023-11-22T04:40:39;6.00;93.30
20487;DHT22;10402;49.012;8.370;2023-11-22T04:43:05;6.00;93.20
20487;DHT22;10402;49.012;8.370;2023-11-22T04:45:31;5.90;92.80
20487;DHT22;10402;49.012;8.370;2023-11-22T04:47:56;5.80;93.00
20487;DHT22;10402;49.012;8.370;2023-11-22T04:50:25;5.80;92.90
20487;DHT22;10402;49.012;8.370;2023-11-22T04:52:51;5.80;93.30
20487;DHT22;10402;49.012;8.370;2023-11-22T04:55:16;5.80;93.10
20487;DHT22;10402;49.012;8.370;2023-11-22T04:57:43;5.80;92.90
20487;DHT22;10402;49.012;8.370;2023-11-22T05:00:09;5.80;92.80
20487;DHT22;10402;49.012;8.370;2023-11-22T05:02:35;5.80;92.50
20487;DHT22;10402;49.012;8.370;2023-11-22T05:05:01;5.80;92.50
20487;DHT22;10402;49.012;8.370;2023-11-22T05:07:26;5.70;92.30
20487;DHT22;10402;49.012;8.370;2023-11-22T05:09:52;5.70;92.50
20487;DHT22;10402;49.012;8.370;2023-11-22T05:12:17;5.50;91.90
20487;DHT22;10402;49.012;8.370;2023-11-22T05:14:43;5.50;92.20
20487;DHT22;10402;49.012;8.370;2023-11-22T05:17:10;5.50;92.30
20487;DHT22;10402;49.012;8.370;2023-11-22T05:19:36;5.50;92.40
20487;DHT22;10402;49.012;8.370;2023-11-22T05:22:01;5.50;92.20
20487;DHT22;10402;49.012;8.370;2023-11-22T05:24:27;5.50;92.30
20487;DHT22;10402;49.012;8.370;2023-11-22T05:26:53;5.50;92.20
20487;DHT22;10402;49.012;8.370;2023-11-22T05:29:18;5.40;92.10
20487;DHT22;10402;49.012;8.370;2023-11-22T05:31:44;5.40;92.20
20487;DHT22;10402;49.012;8.370;2023-11-22T05:34:10;5.40;92.30
20487;DHT22;10402;49.012;8.370;2023-11-22T05:36:35;5.30;92.10
20487;DHT22;10402;49.012;8.370;2023-11-22T05:39:01;5.30;92.40
20487;DHT22;10402;49.012;8.370;2023-11-22T05:41:29;5.20;92.10
20487;DHT22;10402;49.012;8.370;2023-11-22T05:43:54;5.20;92.40
20487;DHT22;10402;49.012;8.370;2023-11-22T05:46:22;5.20;92.60
20487;DHT22;10402;49.012;8.370;2023-11-22T05:48:48;5.10;92.50
20487;DHT22;10402;49.012;8.370;2023-11-22T05:51:17;5.10;92.60
20487;DHT22;10402;49.012;8.370;2023-11-22T05:53:42;5.10;92.60
20487;DHT22;10402;49.012;8.370;2023-11-22T05:56:08;5.00;92.70
20487;DHT22;10402;49.012;8.370;2023-11-22T05:58:38;5.00;92.80
20487;DHT22;10402;49.012;8.370;2023-11-22T06:01:05;5.00;92.80
20487;DHT22;10402;49.012;8.370;2023-11-22T06:03:31;5.10;92.80
20487;DHT22;10402;49.012;8.370;2023-11-22T06:05:57;5.00;92.50
20487;DHT22;10402;49.012;8.370;2023-11-22T06:08:23;5.00;92.70
20487;DHT22;10402;49.012;8.370;2023-11-22T06:10:48;5.00;92.70
20487;DHT22;10402;49.012;8.370;2023-11-22T06:13:14;5.00;92.70
20487;DHT22;10402;49.012;8.370;2023-11-22T06:15:40;5.00;92.60
20487;DHT22;10402;49.012;8.370;2023-11-22T06:18:05;5.00;92.40
20487;DHT22;10402;49.012;8.370;2023-11-22T06:20:31;5.00;92.50
20487;DHT22;10402;49.012;8.370;2023-11-22T06:22:56;4.90;92.40
20487;DHT22;10402;49.012;8.370;2023-11-22T06:25:22;4.90;92.10
20487;DHT22;10402;49.012;8.370;2023-11-22T06:27:48;4.90;92.10
20487;DHT22;10402;49.012;8.370;2023-11-22T06:30:13;4.90;92.10
20487;DHT22;10402;49.012;8.370;2023-11-22T06:32:40;4.90;91.60
20487;DHT22;10402;49.012;8.370;2023-11-22T06:35:08;4.80;91.50
20487;DHT22;10402;49.012;8.370;2023-11-22T06:37:34;4.80;91.50
20487;DHT22;10402;49.012;8.370;2023-11-22T06:40:00;4.70;91.70
20487;DHT22;10402;49.012;8.370;2023-11-22T06:42:25;4.60;91.20
20487;DHT22;10402;49.012;8.370;2023-11-22T06:44:52;4.50;91.10
20487;DHT22;10402;49.012;8.370;2023-11-22T06:47:18;4.50;90.60
20487;DHT22;10402;49.012;8.370;2023-11-22T06:49:44;4.50;91.00
20487;DHT22;10402;49.012;8.370;2023-11-22T06:52:10;4.50;90.70
20487;DHT22;10402;49.012;8.370;2023-11-22T06:54:35;4.50;90.60
20487;DHT22;10402;49.012;8.370;2023-11-22T06:57:02;4.40;90.60
20487;DHT22;10402;49.012;8.370;2023-11-22T06:59:28;4.40;90.60
20487;DHT22;10402;49.012;8.370;2023-11-22T07:01:54;4.40;90.30
20487;DHT22;10402;49.012;8.370;2023-11-22T07:04:21;4.30;90.10
20487;DHT22;10402;49.012;8.370;2023-11-22T07:06:48;4.30;90.20
20487;DHT22;10402;49.012;8.370;2023-11-22T07:09:14;4.30;90.10
20487;DHT22;10402;49.012;8.370;2023-11-22T07:11:40;4.20;89.70
20487;DHT22;10402;49.012;8.370;2023-11-22T07:14:05;4.20;90.00
20487;DHT22;10402;49.012;8.370;2023-11-22T07:16:32;4.30;89.70
20487;DHT22;10402;49.012;8.370;2023-11-22T07:18:59;4.30;89.30
20487;DHT22;10402;49.012;8.370;2023-11-22T07:21:25;4.30;89.00
20487;DHT22;10402;49.012;8.370;2023-11-22T07:23:51;4.30;88.80
20487;DHT22;10402;49.012;8.370;2023-11-22T07:26:17;4.30;88.60
20487;DHT22;10402;49.012;8.370;2023-11-22T07:28:43;4.20;88.50
20487;DHT22;10402;49.012;8.370;2023-11-22T07:31:09;4.20;88.50
20487;DHT22;10402;49.012;8.370;2023-11-22T07:33:35;4.20;87.70
20487;DHT22;10402;49.012;8.370;2023-11-22T07:36:01;4.20;87.20
20487;DHT22;10402;49.012;8.370;2023-11-22T07:38:28;4.20;87.40
20487;DHT22;10402;49.012;8.370;2023-11-22T07:40:54;4.20;87.10
20487;DHT22;10402;49.012;8.370;2023-11-22T07:43:20;4.30;86.90
20487;DHT22;10402;49.012;8.370;2023-11-22T07:45:45;4.20;86.70
20487;DHT22;10402;49.012;8.370;2023-11-22T07:48:12;4.30;86.90
20487;DHT22;10402;49.012;8.370;2023-11-22T07:50:38;4.30;85.90
20487;DHT22;10402;49.012;8.370;2023-11-22T07:53:04;4.20;85.80
20487;DHT22;10402;49.012;8.370;2023-11-22T07:55:30;4.30;85.90
20487;DHT22;10402;49.012;8.370;2023-11-22T07:57:56;4.30;85.50
20487;DHT22;10402;49.012;8.370;2023-11-22T08:00:22;4.40;85.50
20487;DHT22;10402;49.012;8.370;2023-11-22T08:02:48;4.40;85.10
20487;DHT22;10402;49.012;8.370;2023-11-22T08:05:15;4.40;85.40
20487;DHT22;10402;49.012;8.370;2023-11-22T08:07:41;4.50;85.60
20487;DHT22;10402;49.012;8.370;2023-11-22T08:10:10;4.50;85.30
20487;DHT22;10402;49.012;8.370;2023-11-22T08:12:47;4.50;85.20
20487;DHT22;10402;49.012;8.370;2023-11-22T08:15:15;4.50;85.00
20487;DHT22;10402;49.012;8.370;2023-11-22T08:17:41;4.50;85.30
20487;DHT22;10402;49.012;8.370;2023-11-22T08:20:08;4.50;85.50
20487;DHT22;10402;49.012;8.370;2023-11-22T08:22:39;4.40;84.50
20487;DHT22;10402;49.012;8.370;2023-11-22T08:25:08;4.40;84.70
20487;DHT22;10402;49.012;8.370;2023-11-22T08:27:34;4.50;84.50
20487;DHT22;10402;49.012;8.370;2023-11-22T08:30:00;4.50;84.20
20487;DHT22;10402;49.012;8.370;2023-11-22T08:32:31;4.50;83.70
20487;DHT22;10402;49.012;8.370;2023-11-22T08:34:57;4.50;84.10
20487;DHT22;10402;49.012;8.370;2023-11-22T08:37:23;4.50;83.00
20487;DHT22;10402;49.012;8.370;2023-11-22T08:39:49;4.50;82.60
20487;DHT22;10402;49.012;8.370;2023-11-22T08:42:15;4.60;82.40
20487;DHT22;10402;49.012;8.370;2023-11-22T08:44:41;4.70;82.10
20487;DHT22;10402;49.012;8.370;2023-11-22T08:47:06;4.60;81.60
20487;DHT22;10402;49.012;8.370;2023-11-22T08:49:34;4.70;81.30
20487;DHT22;10402;49.012;8.370;2023-11-22T08:52:00;4.60;80.60
20487;DHT22;10402;49.012;8.370;2023-11-22T08:54:28;4.60;80.20
20487;DHT22;10402;49.012;8.370;2023-11-22T08:56:54;4.60;80.40
20487;DHT22;10402;49.012;8.370;2023-11-22T08:59:21;4.60;79.80
20487;DHT22;10402;49.012;8.370;2023-11-22T09:01:47;4.60;79.30
20487;DHT22;10402;49.012;8.370;2023-11-22T09:04:13;4.60;79.70
20487;DHT22;10402;49.012;8.370;2023-11-22T09:06:39;4.60;80.00
20487;DHT22;10402;49.012;8.370;2023-11-22T09:09:04;4.70;79.80
20487;DHT22;10402;49.012;8.370;2023-11-22T09:11:30;4.70;79.10
20487;DHT22;10402;49.012;8.370;2023-11-22T09:13:57;4.70;79.10
20487;DHT22;10402;49.012;8.370;2023-11-22T09:16:23;4.70;78.30
20487;DHT22;10402;49.012;8.370;2023-11-22T09:18:50;4.70;78.00
20487;DHT22;10402;49.012;8.370;2023-11-22T09:21:16;4.60;78.00
20487;DHT22;10402;49.012;8.370;2023-11-22T09:23:45;4.60;78.50
20487;DHT22;10402;49.012;8.370;2023-11-22T09:26:13;4.60;78.80
20487;DHT22;10402;49.012;8.370;2023-11-22T09:28:39;4.70;78.90
20487;DHT22;10402;49.012;8.370;2023-11-22T09:31:08;4.80;79.40
20487;DHT22;10402;49.012;8.370;2023-11-22T09:33:34;4.80;79.20
20487;DHT22;10402;49.012;8.370;2023-11-22T09:35:59;4.80;79.10
20487;DHT22;10402;49.012;8.370;2023-11-22T09:38:25;4.80;79.10
20487;DHT22;10402;49.012;8.370;2023-11-22T09:40:50;4.80;78.70
20487;DHT22;10402;49.012;8.370;2023-11-22T09:43:18;4.80;78.70
20487;DHT22;10402;49.012;8.370;2023-11-22T09:45:44;4.80;78.40
20487;DHT22;10402;49.012;8.370;2023-11-22T09:48:17;4.80;78.70
20487;DHT22;10402;49.012;8.370;2023-11-22T09:50:54;4.80;78.90
20487;DHT22;10402;49.012;8.370;2023-11-22T09:56:02;4.90;78.80
20487;DHT22;10402;49.012;8.370;2023-11-22T09:58:30;4.80;78.50
20487;DHT22;10402;49.012;8.370;2023-11-22T10:01:01;4.90;78.70
20487;DHT22;10402;49.012;8.370;2023-11-22T10:03:27;4.80;78.30
20487;DHT22;10402;49.012;8.370;2023-11-22T10:05:56;4.80;79.40
20487;DHT22;10402;49.012;8.370;2023-11-22T10:08:27;4.80;78.50
20487;DHT22;10402;49.012;8.370;2023-11-22T10:10:56;4.90;78.80
20487;DHT22;10402;49.012;8.370;2023-11-22T10:13:22;5.00;78.30
20487;DHT22;10402;49.012;8.370;2023-11-22T10:15:48;5.00;78.40
20487;DHT22;10402;49.012;8.370;2023-11-22T10:18:14;5.10;78.00
20487;DHT22;10402;49.012;8.370;2023-11-22T10:20:41;5.10;77.90
20487;DHT22;10402;49.012;8.370;2023-11-22T10:23:10;5.00;77.70
20487;DHT22;10402;49.012;8.370;2023-11-22T10:25:54;5.00;78.30
20487;DHT22;10402;49.012;8.370;2023-11-22T10:28:22;5.00;77.70
20487;DHT22;10402;49.012;8.370;2023-11-22T10:30:50;5.00;77.60
20487;DHT22;10402;49.012;8.370;2023-11-22T10:33:17;4.90;78.00
20487;DHT22;10402;49.012;8.370;2023-11-22T10:35:47;4.90;78.20
20487;DHT22;10402;49.012;8.370;2023-11-22T10:38:17;4.90;77.90
20487;DHT22;10402;49.012;8.370;2023-11-22T10:40:43;4.90;77.60
20487;DHT22;10402;49.012;8.370;2023-11-22T10:43:11;4.90;77.80
20487;DHT22;10402;49.012;8.370;2023-11-22T10:45:37;4.90;77.80
20487;DHT22;10402;49.012;8.370;2023-11-22T10:48:04;4.90;77.10
20487;DHT22;10402;49.012;8.370;2023-11-22T10:50:30;4.90;78.10
20487;DHT22;10402;49.012;8.370;2023-11-22T10:52:57;4.90;77.50
20487;DHT22;10402;49.012;8.370;2023-11-22T10:55:31;4.90;78.50
20487;DHT22;10402;49.012;8.370;2023-11-22T10:58:02;5.00;77.60
20487;DHT22;10402;49.012;8.370;2023-11-22T11:00:31;5.00;76.60
20487;DHT22;10402;49.012;8.370;2023-11-22T11:03:06;4.90;76.70
20487;DHT22;10402;49.012;8.370;2023-11-22T11:05:35;4.90;76.90
20487;DHT22;10402;49.012;8.370;2023-11-22T11:08:09;4.90;77.10
20487;DHT22;10402;49.012;8.370;2023-11-22T11:10:43;5.00;77.20
20487;DHT22;10402;49.012;8.370;2023-11-22T11:13:10;5.00;77.10
20487;DHT22;10402;49.012;8.370;2023-11-22T11:15:36;5.00;77.10
20487;DHT22;10402;49.012;8.370;2023-11-22T11:18:03;5.10;77.00
20487;DHT22;10402;49.012;8.370;2023-11-22T11:20:44;5.10;76.40
20487;DHT22;10402;49.012;8.370;2023-11-22T11:23:13;5.10;76.00
20487;DHT22;10402;49.012;8.370;2023-11-22T11:25:41;5.10;76.30
20487;DHT22;10402;49.012;8.370;2023-11-22T11:28:10;5.10;76.40
20487;DHT22;10402;49.012;8.370;2023-11-22T11:30:49;5.20;76.40
20487;DHT22;10402;49.012;8.370;2023-11-22T11:33:18;5.30;76.40
20487;DHT22;10402;49.012;8.370;2023-11-22T11:35:47;5.30;75.60
20487;DHT22;10402;49.012;8.370;2023-11-22T11:38:14;5.20;75.30
20487;DHT22;10402;49.012;8.370;2023-11-22T11:40:41;5.20;75.80
20487;DHT22;10402;49.012;8.370;2023-11-22T11:43:08;5.30;75.80
20487;DHT22;10402;49.012;8.370;2023-11-22T11:45:40;5.30;75.80
20487;DHT22;10402;49.012;8.370;2023-11-22T11:48:15;5.40;75.90
20487;DHT22;10402;49.012;8.370;2023-11-22T11:50:41;5.30;74.60
20487;DHT22;10402;49.012;8.370;2023-11-22T11:53:07;5.30;75.40
20487;DHT22;10402;49.012;8.370;2023-11-22T11:55:33;5.30;75.20
20487;DHT22;10402;49.012;8.370;2023-11-22T11:58:05;5.40;75.40
20487;DHT22;10402;49.012;8.370;2023-11-22T12:00:30;5.30;75.10
20487;DHT22;10402;49.012;8.370;2023-11-22T12:02:56;5.40;75.10
20487;DHT22;10402;49.012;8.370;2023-11-22T12:05:22;5.40;75.20
20487;DHT22;10402;49.012;8.370;2023-11-22T12:07:47;5.30;74.30
20487;DHT22;10402;49.012;8.370;2023-11-22T12:10:14;5.30;74.50
20487;DHT22;10402;49.012;8.370;2023-11-22T12:12:42;5.30;74.20
20487;DHT22;10402;49.012;8.370;2023-11-22T12:15:09;5.30;74.00
20487;DHT22;10402;49.012;8.370;2023-11-22T12:17:36;5.20;73.80
20487;DHT22;10402;49.012;8.370;2023-11-22T12:20:15;5.20;74.00
20487;DHT22;10402;49.012;8.370;2023-11-22T12:22:43;5.20;74.10
20487;DHT22;10402;49.012;8.370;2023-11-22T12:25:10;5.20;74.00
20487;DHT22;10402;49.012;8.370;2023-11-22T12:27:44;5.30;74.20
20487;DHT22;10402;49.012;8.370;2023-11-22T12:30:30;5.30;74.10
20487;DHT22;10402;49.012;8.370;2023-11-22T12:33:06;5.40;73.50
20487;DHT22;10402;49.012;8.370;2023-11-22T12:35:35;5.30;72.90
20487;DHT22;10402;49.012;8.370;2023-11-22T12:38:01;5.40;73.80
20487;DHT22;10402;49.012;8.370;2023-11-22T12:40:29;5.40;73.80
20487;DHT22;10402;49.012;8.370;2023-11-22T12:42:58;5.50;73.50
20487;DHT22;10402;49.012;8.370;2023-11-22T12:45:26;5.40;72.80
20487;DHT22;10402;49.012;8.370;2023-11-22T12:47:53;5.40;73.20
20487;DHT22;10402;49.012;8.370;2023-11-22T12:50:37;5.50;73.10
20487;DHT22;10402;49.012;8.370;2023-11-22T12:55:42;5.40;72.70
20487;DHT22;10402;49.012;8.370;2023-11-22T12:58:12;5.40;72.00
20487;DHT22;10402;49.012;8.370;2023-11-22T13:00:41;5.30;71.60
20487;DHT22;10402;49.012;8.370;2023-11-22T13:03:08;5.30;71.80
20487;DHT22;10402;49.012;8.370;2023-11-22T13:05:37;5.30;71.90
20487;DHT22;10402;49.012;8.370;2023-11-22T13:08:03;5.20;71.60
20487;DHT22;10402;49.012;8.370;2023-11-22T13:10:29;5.20;72.20
20487;DHT22;10402;49.012;8.370;2023-11-22T13:12:56;5.30;72.10
20487;DHT22;10402;49.012;8.370;2023-11-22T13:15:21;5.30;72.40
20487;DHT22;10402;49.012;8.370;2023-11-22T13:17:52;5.40;72.70
20487;DHT22;10402;49.012;8.370;2023-11-22T13:20:26;5.40;72.50
20487;DHT22;10402;49.012;8.370;2023-11-22T13:22:53;5.50;72.60
20487;DHT22;10402;49.012;8.370;2023-11-22T13:25:20;5.50;72.30
20487;DHT22;10402;49.012;8.370;2023-11-22T13:27:49;5.50;72.40
20487;DHT22;10402;49.012;8.370;2023-11-22T13:30:16;5.50;72.00
20487;DHT22;10402;49.012;8.370;2023-11-22T13:32:44;5.50;72.40
20487;DHT22;10402;49.012;8.370;2023-11-22T13:35:10;5.50;72.30
20487;DHT22;10402;49.012;8.370;2023-11-22T13:37:41;5.50;71.60
20487;DHT22;10402;49.012;8.370;2023-11-22T13:40:12;5.50;72.10
20487;DHT22;10402;49.012;8.370;2023-11-22T13:42:45;5.60;72.20
20487;DHT22;10402;49.012;8.370;2023-11-22T13:45:12;5.60;72.30
20487;DHT22;10402;49.012;8.370;2023-11-22T13:47:49;5.70;72.20
20487;DHT22;10402;49.012;8.370;2023-11-22T13:50:16;5.70;71.50
20487;DHT22;10402;49.012;8.370;2023-11-22T13:52:51;5.60;71.30
20487;DHT22;10402;49.012;8.370;2023-11-22T13:55:17;5.50;70.90
20487;DHT22;10402;49.012;8.370;2023-11-22T13:57:56;5.50;71.10
20487;DHT22;10402;49.012;8.370;2023-11-22T14:00:25;5.40;71.40
20487;DHT22;10402;49.012;8.370;2023-11-22T14:02:54;5.40;71.60
20487;DHT22;10402;49.012;8.370;2023-11-22T14:05:24;5.40;71.00
20487;DHT22;10402;49.012;8.370;2023-11-22T14:07:50;5.40;71.10
20487;DHT22;10402;49.012;8.370;2023-11-22T14:10:17;5.40;71.60
20487;DHT22;10402;49.012;8.370;2023-11-22T14:12:44;5.40;71.50
20487;DHT22;10402;49.012;8.370;2023-11-22T14:15:11;5.50;71.50
20487;DHT22;10402;49.012;8.370;2023-11-22T14:17:37;5.60;71.50
20487;DHT22;10402;49.012;8.370;2023-11-22T14:22:38;5.70;70.50
20487;DHT22;10402;49.012;8.370;2023-11-22T14:25:05;5.70;71.10
20487;DHT22;10402;49.012;8.370;2023-11-22T14:27:37;5.70;71.00
20487;DHT22;10402;49.012;8.370;2023-11-22T14:30:03;5.80;70.70
20487;DHT22;10402;49.012;8.370;2023-11-22T14:32:33;5.80;70.60
20487;DHT22;10402;49.012;8.370;2023-11-22T14:35:03;5.80;70.70
20487;DHT22;10402;49.012;8.370;2023-11-22T14:37:29;5.80;70.70
20487;DHT22;10402;49.012;8.370;2023-11-22T14:39:58;5.90;70.70
20487;DHT22;10402;49.012;8.370;2023-11-22T14:42:24;5.90;70.70
20487;DHT22;10402;49.012;8.370;2023-11-22T14:44:53;5.90;70.70
20487;DHT22;10402;49.012;8.370;2023-11-22T14:47:20;5.90;70.70
20487;DHT22;10402;49.012;8.370;2023-11-22T14:49:49;5.90;70.70
20487;DHT22;10402;49.012;8.370;2023-11-22T14:52:15;5.80;70.20
20487;DHT22;10402;49.012;8.370;2023-11-22T14:54:45;5.70;70.40
20487;DHT22;10402;49.012;8.370;2023-11-22T14:57:11;5.80;70.60
20487;DHT22;10402;49.012;8.370;2023-11-22T14:59:41;5.80;70.30
20487;DHT22;10402;49.012;8.370;2023-11-22T15:02:07;5.80;70.60
20487;DHT22;10402;49.012;8.370;2023-11-22T15:04:36;5.80;70.10
20487;DHT22;10402;49.012;8.370;2023-11-22T15:07:05;5.80;71.30
20487;DHT22;10402;49.012;8.370;2023-11-22T15:09:32;5.80;70.40
20487;DHT22;10402;49.012;8.370;2023-11-22T15:12:01;5.70;69.70
20487;DHT22;10402;49.012;8.370;2023-11-22T15:14:31;5.70;70.00
20487;DHT22;10402;49.012;8.370;2023-11-22T15:16:57;5.70;69.60
20487;DHT22;10402;49.012;8.370;2023-11-22T15:19:22;5.70;69.50
20487;DHT22;10402;49.012;8.370;2023-11-22T15:21:52;5.70;69.40
20487;DHT22;10402;49.012;8.370;2023-11-22T15:24:18;5.80;70.80
20487;DHT22;10402;49.012;8.370;2023-11-22T15:26:44;5.80;70.30
20487;DHT22;10402;49.012;8.370;2023-11-22T15:29:10;5.90;70.40
20487;DHT22;10402;49.012;8.370;2023-11-22T15:31:35;6.00;70.80
20487;DHT22;10402;49.012;8.370;2023-11-22T15:34:01;6.00;70.40
20487;DHT22;10402;49.012;8.370;2023-11-22T15:36:27;6.10;70.30
20487;DHT22;10402;49.012;8.370;2023-11-22T15:38:53;6.10;70.20
20487;DHT22;10402;49.012;8.370;2023-11-22T15:41:19;6.10;70.70
20487;DHT22;10402;49.012;8.370;2023-11-22T15:43:45;6.10;70.20
20487;DHT22;10402;49.012;8.370;2023-11-22T15:46:12;6.10;69.60
20487;DHT22;10402;49.012;8.370;2023-11-22T15:48:38;6.00;68.90
20487;DHT22;10402;49.012;8.370;2023-11-22T15:51:04;6.00;69.00